sensor_id;sensor_type;location;lat;lon;timestamp;P1;durP1;ratioP1;P2;durP2;ratioP2
15567;SDS011;7885;42.596;23.044;2023-08-01T00:01:01;3.67;;;2.33;;
15567;SDS011;7885;42.596;23.044;2023-08-01T00:03:28;2.57;;;2.37;;
15567;SDS011;7885;42.596;23.044;2023-08-01T00:05:55;3.33;;;2.20;;
15567;SDS011;7885;42.596;23.044;2023-08-01T00:08:22;2.40;;;2.20;;
15567;SDS011;7885;42.596;23.044;2023-08-01T00:10:50;2.43;;;2.23;;
15567;SDS011;7885;42.596;23.044;2023-08-01T00:13:17;3.50;;;2.30;;
15567;SDS011;7885;42.596;23.044;2023-08-01T00:15:44;2.80;;;2.60;;
15567;SDS011;7885;42.596;23.044;2023-08-01T00:18:10;2.40;;;2.17;;
15567;SDS011;7885;42.596;23.044;2023-08-01T00:20:37;2.40;;;2.20;;
15567;SDS011;7885;42.596;23.044;2023-08-01T00:23:04;3.00;;;2.10;;
15567;SDS011;7885;42.596;23.044;2023-08-01T00:25:31;2.80;;;2.13;;
15567;SDS011;7885;42.596;23.044;2023-08-01T00:27:59;4.03;;;2.20;;
15567;SDS011;7885;42.596;23.044;2023-08-01T00:30:26;3.47;;;2.37;;
15567;SDS011;7885;42.596;23.044;2023-08-01T00:32:53;3.20;;;2.17;;
15567;SDS011;7885;42.596;23.044;2023-08-01T00:35:20;4.03;;;2.67;;
15567;SDS011;7885;42.596;23.044;2023-08-01T00:37:46;3.67;;;2.20;;
15567;SDS011;7885;42.596;23.044;2023-08-01T00:40:13;2.47;;;2.27;;
15567;SDS011;7885;42.596;23.044;2023-08-01T00:42:41;2.63;;;2.43;;
15567;SDS011;7885;42.596;23.044;2023-08-01T00:45:10;2.43;;;2.20;;
15567;SDS011;7885;42.596;23.044;2023-08-01T00:47:37;3.40;;;2.00;;
15567;SDS011;7885;42.596;23.044;2023-08-01T00:50:04;3.80;;;1.90;;
15567;SDS011;7885;42.596;23.044;2023-08-01T00:52:33;2.53;;;2.33;;
15567;SDS011;7885;42.596;23.044;2023-08-01T00:55:00;2.70;;;2.37;;
15567;SDS011;7885;42.596;23.044;2023-08-01T00:57:26;2.43;;;2.23;;
15567;SDS011;7885;42.596;23.044;2023-08-01T00:59:53;2.57;;;2.10;;
15567;SDS011;7885;42.596;23.044;2023-08-01T01:02:21;2.33;;;2.13;;
15567;SDS011;7885;42.596;23.044;2023-08-01T01:04:49;3.03;;;2.60;;
15567;SDS011;7885;42.596;23.044;2023-08-01T01:07:16;2.40;;;2.20;;
15567;SDS011;7885;42.596;23.044;2023-08-01T01:09:43;3.30;;;2.40;;
15567;SDS011;7885;42.596;23.044;2023-08-01T01:12:10;2.60;;;2.30;;
15567;SDS011;7885;42.596;23.044;2023-08-01T01:14:37;2.50;;;2.30;;
15567;SDS011;7885;42.596;23.044;2023-08-01T01:17:03;2.47;;;2.10;;
15567;SDS011;7885;42.596;23.044;2023-08-01T01:19:32;2.60;;;2.40;;
15567;SDS011;7885;42.596;23.044;2023-08-01T01:22:00;5.00;;;2.63;;
15567;SDS011;7885;42.596;23.044;2023-08-01T01:24:30;2.37;;;2.10;;
15567;SDS011;7885;42.596;23.044;2023-08-01T01:26:58;3.30;;;2.30;;
15567;SDS011;7885;42.596;23.044;2023-08-01T01:29:27;2.37;;;1.87;;
15567;SDS011;7885;42.596;23.044;2023-08-01T01:31:55;2.60;;;2.17;;
15567;SDS011;7885;42.596;23.044;2023-08-01T01:34:22;2.30;;;2.10;;
15567;SDS011;7885;42.596;23.044;2023-08-01T01:36:50;2.70;;;2.10;;
15567;SDS011;7885;42.596;23.044;2023-08-01T01:39:18;3.07;;;2.67;;
15567;SDS011;7885;42.596;23.044;2023-08-01T01:41:45;2.47;;;2.27;;
15567;SDS011;7885;42.596;23.044;2023-08-01T01:44:12;2.87;;;2.40;;
15567;SDS011;7885;42.596;23.044;2023-08-01T01:46:38;3.20;;;2.40;;
15567;SDS011;7885;42.596;23.044;2023-08-01T01:49:05;3.50;;;2.80;;
15567;SDS011;7885;42.596;23.044;2023-08-01T01:51:32;4.80;;;2.47;;
15567;SDS011;7885;42.596;23.044;2023-08-01T01:53:59;3.87;;;2.37;;
15567;SDS011;7885;42.596;23.044;2023-08-01T01:56:27;2.17;;;2.07;;
15567;SDS011;7885;42.596;23.044;2023-08-01T01:58:54;2.70;;;2.50;;
15567;SDS011;7885;42.596;23.044;2023-08-01T02:01:21;2.60;;;2.40;;
15567;SDS011;7885;42.596;23.044;2023-08-01T02:03:48;3.70;;;2.30;;
15567;SDS011;7885;42.596;23.044;2023-08-01T02:06:15;3.93;;;2.30;;
15567;SDS011;7885;42.596;23.044;2023-08-01T02:08:41;3.37;;;2.30;;
15567;SDS011;7885;42.596;23.044;2023-08-01T02:11:08;2.20;;;2.00;;
15567;SDS011;7885;42.596;23.044;2023-08-01T02:13:36;2.97;;;2.20;;
15567;SDS011;7885;42.596;23.044;2023-08-01T02:16:03;2.50;;;2.30;;
15567;SDS011;7885;42.596;23.044;2023-08-01T02:18:30;4.13;;;2.17;;
15567;SDS011;7885;42.596;23.044;2023-08-01T02:20:57;2.20;;;2.10;;
15567;SDS011;7885;42.596;23.044;2023-08-01T02:23:24;3.47;;;2.53;;
15567;SDS011;7885;42.596;23.044;2023-08-01T02:25:51;2.80;;;2.60;;
15567;SDS011;7885;42.596;23.044;2023-08-01T02:28:17;2.60;;;2.40;;
15567;SDS011;7885;42.596;23.044;2023-08-01T02:30:46;2.50;;;2.30;;
15567;SDS011;7885;42.596;23.044;2023-08-01T02:33:12;5.70;;;3.20;;
15567;SDS011;7885;42.596;23.044;2023-08-01T02:35:39;4.67;;;3.33;;
15567;SDS011;7885;42.596;23.044;2023-08-01T02:38:06;4.27;;;3.50;;
15567;SDS011;7885;42.596;23.044;2023-08-01T02:40:33;3.17;;;2.40;;
15567;SDS011;7885;42.596;23.044;2023-08-01T02:42:59;6.40;;;2.30;;
15567;SDS011;7885;42.596;23.044;2023-08-01T02:45:26;3.10;;;2.70;;
15567;SDS011;7885;42.596;23.044;2023-08-01T02:47:54;2.63;;;2.43;;
15567;SDS011;7885;42.596;23.044;2023-08-01T02:50:21;3.50;;;2.40;;
15567;SDS011;7885;42.596;23.044;2023-08-01T02:52:48;2.90;;;2.10;;
15567;SDS011;7885;42.596;23.044;2023-08-01T02:55:14;2.20;;;2.10;;
15567;SDS011;7885;42.596;23.044;2023-08-01T02:57:41;3.33;;;2.23;;
15567;SDS011;7885;42.596;23.044;2023-08-01T03:00:08;2.90;;;2.43;;
15567;SDS011;7885;42.596;23.044;2023-08-01T03:02:36;5.73;;;3.27;;
15567;SDS011;7885;42.596;23.044;2023-08-01T03:05:05;5.87;;;3.77;;
15567;SDS011;7885;42.596;23.044;2023-08-01T03:07:33;5.47;;;4.23;;
15567;SDS011;7885;42.596;23.044;2023-08-01T03:09:59;10.47;;;4.83;;
15567;SDS011;7885;42.596;23.044;2023-08-01T03:12:26;6.77;;;4.60;;
15567;SDS011;7885;42.596;23.044;2023-08-01T03:14:53;9.90;;;5.73;;
15567;SDS011;7885;42.596;23.044;2023-08-01T03:17:20;12.13;;;6.53;;
15567;SDS011;7885;42.596;23.044;2023-08-01T03:19:46;4.43;;;2.73;;
15567;SDS011;7885;42.596;23.044;2023-08-01T03:22:15;5.00;;;3.93;;
15567;SDS011;7885;42.596;23.044;2023-08-01T03:24:42;4.37;;;3.93;;
15567;SDS011;7885;42.596;23.044;2023-08-01T03:27:09;4.70;;;3.60;;
15567;SDS011;7885;42.596;23.044;2023-08-01T03:29:36;4.17;;;3.50;;
15567;SDS011;7885;42.596;23.044;2023-08-01T03:32:03;5.73;;;3.63;;
15567;SDS011;7885;42.596;23.044;2023-08-01T03:34:30;6.20;;;3.13;;
15567;SDS011;7885;42.596;23.044;2023-08-01T03:36:57;5.60;;;3.73;;
15567;SDS011;7885;42.596;23.044;2023-08-01T03:39:25;5.87;;;3.87;;
15567;SDS011;7885;42.596;23.044;2023-08-01T03:41:52;6.53;;;4.13;;
15567;SDS011;7885;42.596;23.044;2023-08-01T03:44:19;6.47;;;3.47;;
15567;SDS011;7885;42.596;23.044;2023-08-01T03:46:45;5.73;;;3.57;;
15567;SDS011;7885;42.596;23.044;2023-08-01T03:49:12;4.30;;;2.83;;
15567;SDS011;7885;42.596;23.044;2023-08-01T03:51:39;4.83;;;2.97;;
15567;SDS011;7885;42.596;23.044;2023-08-01T03:54:06;6.23;;;3.30;;
15567;SDS011;7885;42.596;23.044;2023-08-01T03:56:34;3.40;;;2.77;;
15567;SDS011;7885;42.596;23.044;2023-08-01T03:59:01;2.77;;;2.50;;
15567;SDS011;7885;42.596;23.044;2023-08-01T04:01:29;4.27;;;2.80;;
15567;SDS011;7885;42.596;23.044;2023-08-01T04:03:56;3.43;;;3.10;;
15567;SDS011;7885;42.596;23.044;2023-08-01T04:06:23;3.27;;;2.87;;
15567;SDS011;7885;42.596;23.044;2023-08-01T04:08:49;3.23;;;2.73;;
15567;SDS011;7885;42.596;23.044;2023-08-01T04:11:17;3.77;;;2.73;;
15567;SDS011;7885;42.596;23.044;2023-08-01T04:13:45;3.57;;;3.17;;
15567;SDS011;7885;42.596;23.044;2023-08-01T04:16:12;7.83;;;4.20;;
15567;SDS011;7885;42.596;23.044;2023-08-01T04:18:39;8.30;;;4.23;;
15567;SDS011;7885;42.596;23.044;2023-08-01T04:21:06;8.57;;;4.43;;
15567;SDS011;7885;42.596;23.044;2023-08-01T04:23:35;10.90;;;4.40;;
15567;SDS011;7885;42.596;23.044;2023-08-01T04:26:01;5.57;;;3.57;;
15567;SDS011;7885;42.596;23.044;2023-08-01T04:28:31;5.60;;;3.20;;
15567;SDS011;7885;42.596;23.044;2023-08-01T04:30:59;3.60;;;3.00;;
15567;SDS011;7885;42.596;23.044;2023-08-01T04:33:26;4.77;;;2.83;;
15567;SDS011;7885;42.596;23.044;2023-08-01T04:35:53;6.07;;;3.90;;
15567;SDS011;7885;42.596;23.044;2023-08-01T04:38:20;9.13;;;4.57;;
15567;SDS011;7885;42.596;23.044;2023-08-01T04:40:47;11.23;;;5.87;;
15567;SDS011;7885;42.596;23.044;2023-08-01T04:43:13;11.50;;;7.17;;
15567;SDS011;7885;42.596;23.044;2023-08-01T04:45:40;12.03;;;7.20;;
15567;SDS011;7885;42.596;23.044;2023-08-01T04:48:08;17.23;;;9.20;;
15567;SDS011;7885;42.596;23.044;2023-08-01T04:50:35;14.33;;;8.53;;
15567;SDS011;7885;42.596;23.044;2023-08-01T04:53:02;21.23;;;10.40;;
15567;SDS011;7885;42.596;23.044;2023-08-01T04:55:29;21.47;;;10.00;;
15567;SDS011;7885;42.596;23.044;2023-08-01T04:57:55;18.63;;;9.43;;
15567;SDS011;7885;42.596;23.044;2023-08-01T05:00:22;14.47;;;7.37;;
15567;SDS011;7885;42.596;23.044;2023-08-01T05:02:49;13.10;;;7.27;;
15567;SDS011;7885;42.596;23.044;2023-08-01T05:05:17;17.07;;;7.57;;
15567;SDS011;7885;42.596;23.044;2023-08-01T05:07:44;17.37;;;7.77;;
15567;SDS011;7885;42.596;23.044;2023-08-01T05:10:11;19.90;;;7.83;;
15567;SDS011;7885;42.596;23.044;2023-08-01T05:12:37;15.97;;;7.37;;
15567;SDS011;7885;42.596;23.044;2023-08-01T05:15:04;19.10;;;7.73;;
15567;SDS011;7885;42.596;23.044;2023-08-01T05:17:32;14.13;;;6.90;;
15567;SDS011;7885;42.596;23.044;2023-08-01T05:19:59;14.00;;;6.63;;
15567;SDS011;7885;42.596;23.044;2023-08-01T05:22:27;11.57;;;6.60;;
15567;SDS011;7885;42.596;23.044;2023-08-01T05:24:53;18.63;;;7.27;;
15567;SDS011;7885;42.596;23.044;2023-08-01T05:27:20;14.67;;;6.60;;
15567;SDS011;7885;42.596;23.044;2023-08-01T05:29:47;14.17;;;6.53;;
15567;SDS011;7885;42.596;23.044;2023-08-01T05:32:14;14.13;;;6.70;;
15567;SDS011;7885;42.596;23.044;2023-08-01T05:34:40;19.10;;;7.50;;
15567;SDS011;7885;42.596;23.044;2023-08-01T05:37:07;13.63;;;7.30;;
15567;SDS011;7885;42.596;23.044;2023-08-01T05:39:35;14.27;;;6.67;;
15567;SDS011;7885;42.596;23.044;2023-08-01T05:42:02;14.07;;;6.03;;
15567;SDS011;7885;42.596;23.044;2023-08-01T05:44:33;14.57;;;5.50;;
15567;SDS011;7885;42.596;23.044;2023-08-01T05:47:00;13.13;;;5.73;;
15567;SDS011;7885;42.596;23.044;2023-08-01T05:49:27;12.73;;;6.00;;
15567;SDS011;7885;42.596;23.044;2023-08-01T05:51:54;14.53;;;5.73;;
15567;SDS011;7885;42.596;23.044;2023-08-01T05:54:21;15.00;;;6.70;;
15567;SDS011;7885;42.596;23.044;2023-08-01T05:56:49;19.00;;;6.73;;
15567;SDS011;7885;42.596;23.044;2023-08-01T05:59:16;14.70;;;6.07;;
15567;SDS011;7885;42.596;23.044;2023-08-01T06:01:43;11.97;;;5.50;;
15567;SDS011;7885;42.596;23.044;2023-08-01T06:04:10;15.10;;;6.17;;
15567;SDS011;7885;42.596;23.044;2023-08-01T06:06:37;10.03;;;5.47;;
15567;SDS011;7885;42.596;23.044;2023-08-01T06:09:03;12.27;;;4.80;;
15567;SDS011;7885;42.596;23.044;2023-08-01T06:11:30;11.53;;;5.43;;
15567;SDS011;7885;42.596;23.044;2023-08-01T06:13:59;15.70;;;6.07;;
15567;SDS011;7885;42.596;23.044;2023-08-01T06:16:26;14.50;;;5.53;;
15567;SDS011;7885;42.596;23.044;2023-08-01T06:18:53;13.43;;;6.03;;
15567;SDS011;7885;42.596;23.044;2023-08-01T06:21:20;18.13;;;6.30;;
15567;SDS011;7885;42.596;23.044;2023-08-01T06:23:47;12.23;;;5.20;;
15567;SDS011;7885;42.596;23.044;2023-08-01T06:26:13;11.73;;;4.60;;
15567;SDS011;7885;42.596;23.044;2023-08-01T06:28:41;16.47;;;5.83;;
15567;SDS011;7885;42.596;23.044;2023-08-01T06:31:09;16.20;;;6.90;;
15567;SDS011;7885;42.596;23.044;2023-08-01T06:33:36;21.73;;;6.60;;
15567;SDS011;7885;42.596;23.044;2023-08-01T06:36:03;9.00;;;5.00;;
15567;SDS011;7885;42.596;23.044;2023-08-01T06:38:30;7.20;;;3.93;;
15567;SDS011;7885;42.596;23.044;2023-08-01T06:40:57;8.90;;;3.67;;
15567;SDS011;7885;42.596;23.044;2023-08-01T06:43:24;6.63;;;2.93;;
15567;SDS011;7885;42.596;23.044;2023-08-01T06:45:50;4.70;;;3.17;;
15567;SDS011;7885;42.596;23.044;2023-08-01T06:48:19;7.70;;;3.37;;
15567;SDS011;7885;42.596;23.044;2023-08-01T06:50:45;8.17;;;3.47;;
15567;SDS011;7885;42.596;23.044;2023-08-01T06:53:12;16.47;;;4.33;;
15567;SDS011;7885;42.596;23.044;2023-08-01T06:55:39;12.27;;;3.60;;
15567;SDS011;7885;42.596;23.044;2023-08-01T06:58:06;7.97;;;3.43;;
15567;SDS011;7885;42.596;23.044;2023-08-01T07:00:32;3.37;;;2.70;;
15567;SDS011;7885;42.596;23.044;2023-08-01T07:02:59;6.13;;;3.20;;
15567;SDS011;7885;42.596;23.044;2023-08-01T07:05:27;6.03;;;3.40;;
15567;SDS011;7885;42.596;23.044;2023-08-01T07:07:54;6.03;;;3.87;;
15567;SDS011;7885;42.596;23.044;2023-08-01T07:10:21;21.90;;;8.40;;
15567;SDS011;7885;42.596;23.044;2023-08-01T07:12:48;4.27;;;3.30;;
15567;SDS011;7885;42.596;23.044;2023-08-01T07:15:15;3.47;;;2.80;;
15567;SDS011;7885;42.596;23.044;2023-08-01T07:17:41;4.23;;;3.00;;
15567;SDS011;7885;42.596;23.044;2023-08-01T07:20:08;5.80;;;3.33;;
15567;SDS011;7885;42.596;23.044;2023-08-01T07:22:37;4.90;;;2.93;;
15567;SDS011;7885;42.596;23.044;2023-08-01T07:25:04;5.60;;;2.93;;
15567;SDS011;7885;42.596;23.044;2023-08-01T07:27:32;3.80;;;3.10;;
15567;SDS011;7885;42.596;23.044;2023-08-01T07:29:59;5.03;;;3.13;;
15567;SDS011;7885;42.596;23.044;2023-08-01T07:32:25;5.73;;;2.90;;
15567;SDS011;7885;42.596;23.044;2023-08-01T07:34:52;3.53;;;2.67;;
15567;SDS011;7885;42.596;23.044;2023-08-01T07:37:19;7.07;;;2.90;;
15567;SDS011;7885;42.596;23.044;2023-08-01T07:39:49;3.40;;;3.07;;
15567;SDS011;7885;42.596;23.044;2023-08-01T07:42:15;4.37;;;3.00;;
15567;SDS011;7885;42.596;23.044;2023-08-01T07:44:42;4.60;;;3.10;;
15567;SDS011;7885;42.596;23.044;2023-08-01T07:47:09;6.30;;;3.07;;
15567;SDS011;7885;42.596;23.044;2023-08-01T07:49:36;3.80;;;2.67;;
15567;SDS011;7885;42.596;23.044;2023-08-01T07:52:03;4.57;;;2.40;;
15567;SDS011;7885;42.596;23.044;2023-08-01T07:54:30;4.70;;;3.20;;
15567;SDS011;7885;42.596;23.044;2023-08-01T07:56:58;9.63;;;3.70;;
15567;SDS011;7885;42.596;23.044;2023-08-01T07:59:25;3.07;;;2.77;;
15567;SDS011;7885;42.596;23.044;2023-08-01T08:01:52;2.73;;;2.53;;
15567;SDS011;7885;42.596;23.044;2023-08-01T08:04:19;4.63;;;2.47;;
15567;SDS011;7885;42.596;23.044;2023-08-01T08:06:45;2.93;;;2.50;;
15567;SDS011;7885;42.596;23.044;2023-08-01T08:09:12;3.20;;;2.70;;
15567;SDS011;7885;42.596;23.044;2023-08-01T08:11:39;4.23;;;2.53;;
15567;SDS011;7885;42.596;23.044;2023-08-01T08:14:07;3.23;;;2.93;;
15567;SDS011;7885;42.596;23.044;2023-08-01T08:16:34;4.87;;;2.70;;
15567;SDS011;7885;42.596;23.044;2023-08-01T08:19:01;3.20;;;2.90;;
15567;SDS011;7885;42.596;23.044;2023-08-01T08:21:28;4.00;;;2.70;;
15567;SDS011;7885;42.596;23.044;2023-08-01T08:23:54;5.80;;;2.90;;
15567;SDS011;7885;42.596;23.044;2023-08-01T08:26:21;4.70;;;2.67;;
15567;SDS011;7885;42.596;23.044;2023-08-01T08:28:49;7.37;;;2.93;;
15567;SDS011;7885;42.596;23.044;2023-08-01T08:31:17;5.30;;;2.47;;
15567;SDS011;7885;42.596;23.044;2023-08-01T08:33:43;4.20;;;3.00;;
15567;SDS011;7885;42.596;23.044;2023-08-01T08:36:10;2.60;;;2.40;;
15567;SDS011;7885;42.596;23.044;2023-08-01T08:38:37;2.57;;;2.37;;
15567;SDS011;7885;42.596;23.044;2023-08-01T08:41:06;2.50;;;2.30;;
15567;SDS011;7885;42.596;23.044;2023-08-01T08:43:36;2.93;;;2.50;;
15567;SDS011;7885;42.596;23.044;2023-08-01T08:46:04;3.43;;;2.20;;
15567;SDS011;7885;42.596;23.044;2023-08-01T08:48:32;2.50;;;2.30;;
15567;SDS011;7885;42.596;23.044;2023-08-01T08:51:00;2.50;;;2.30;;
15567;SDS011;7885;42.596;23.044;2023-08-01T08:53:28;2.43;;;2.23;;
15567;SDS011;7885;42.596;23.044;2023-08-01T08:55:57;2.13;;;1.93;;
15567;SDS011;7885;42.596;23.044;2023-08-01T08:58:25;2.40;;;2.20;;
15567;SDS011;7885;42.596;23.044;2023-08-01T09:00:52;2.73;;;2.27;;
15567;SDS011;7885;42.596;23.044;2023-08-01T09:03:19;2.78;;;2.50;;
15567;SDS011;7885;42.596;23.044;2023-08-01T09:05:49;2.30;;;2.20;;
15567;SDS011;7885;42.596;23.044;2023-08-01T09:08:18;2.60;;;2.40;;
15567;SDS011;7885;42.596;23.044;2023-08-01T09:10:46;2.60;;;2.40;;
15567;SDS011;7885;42.596;23.044;2023-08-01T09:13:13;2.30;;;2.10;;
15567;SDS011;7885;42.596;23.044;2023-08-01T09:15:40;2.63;;;2.42;;
15567;SDS011;7885;42.596;23.044;2023-08-01T09:18:08;4.53;;;2.20;;
15567;SDS011;7885;42.596;23.044;2023-08-01T09:20:45;2.70;;;2.50;;
15567;SDS011;7885;42.596;23.044;2023-08-01T09:23:15;3.93;;;2.70;;
15567;SDS011;7885;42.596;23.044;2023-08-01T09:25:43;2.38;;;2.28;;
15567;SDS011;7885;42.596;23.044;2023-08-01T09:28:17;2.70;;;2.50;;
15567;SDS011;7885;42.596;23.044;2023-08-01T09:30:45;2.22;;;2.13;;
15567;SDS011;7885;42.596;23.044;2023-08-01T09:33:13;2.40;;;2.30;;
15567;SDS011;7885;42.596;23.044;2023-08-01T09:35:40;3.97;;;2.30;;
15567;SDS011;7885;42.596;23.044;2023-08-01T09:38:10;2.10;;;2.00;;
15567;SDS011;7885;42.596;23.044;2023-08-01T09:40:38;2.10;;;2.00;;
15567;SDS011;7885;42.596;23.044;2023-08-01T09:43:06;4.45;;;2.13;;
15567;SDS011;7885;42.596;23.044;2023-08-01T09:45:33;2.20;;;2.10;;
15567;SDS011;7885;42.596;23.044;2023-08-01T09:48:00;2.47;;;2.28;;
15567;SDS011;7885;42.596;23.044;2023-08-01T09:50:27;2.33;;;2.22;;
15567;SDS011;7885;42.596;23.044;2023-08-01T09:52:54;2.95;;;2.10;;
15567;SDS011;7885;42.596;23.044;2023-08-01T09:55:26;2.63;;;2.05;;
15567;SDS011;7885;42.596;23.044;2023-08-01T09:57:58;2.20;;;2.10;;
15567;SDS011;7885;42.596;23.044;2023-08-01T10:00:26;3.90;;;2.30;;
15567;SDS011;7885;42.596;23.044;2023-08-01T10:02:53;2.40;;;2.20;;
15567;SDS011;7885;42.596;23.044;2023-08-01T10:05:21;2.38;;;2.17;;
15567;SDS011;7885;42.596;23.044;2023-08-01T10:07:49;2.40;;;2.20;;
15567;SDS011;7885;42.596;23.044;2023-08-01T10:10:20;2.35;;;2.17;;
15567;SDS011;7885;42.596;23.044;2023-08-01T10:12:49;2.40;;;2.30;;
15567;SDS011;7885;42.596;23.044;2023-08-01T10:15:16;3.15;;;2.50;;
15567;SDS011;7885;42.596;23.044;2023-08-01T10:17:44;2.35;;;1.98;;
15567;SDS011;7885;42.596;23.044;2023-08-01T10:20:11;2.40;;;2.20;;
15567;SDS011;7885;42.596;23.044;2023-08-01T10:22:39;2.50;;;2.30;;
15567;SDS011;7885;42.596;23.044;2023-08-01T10:25:07;2.40;;;2.20;;
15567;SDS011;7885;42.596;23.044;2023-08-01T10:27:35;4.05;;;2.47;;
15567;SDS011;7885;42.596;23.044;2023-08-01T10:30:04;2.22;;;2.13;;
15567;SDS011;7885;42.596;23.044;2023-08-01T10:32:32;2.70;;;2.45;;
15567;SDS011;7885;42.596;23.044;2023-08-01T10:34:59;2.55;;;2.35;;
15567;SDS011;7885;42.596;23.044;2023-08-01T10:37:26;3.38;;;2.22;;
15567;SDS011;7885;42.596;23.044;2023-08-01T10:39:56;2.45;;;2.20;;
15567;SDS011;7885;42.596;23.044;2023-08-01T10:42:24;3.83;;;1.90;;
15567;SDS011;7885;42.596;23.044;2023-08-01T10:44:51;2.00;;;1.90;;
15567;SDS011;7885;42.596;23.044;2023-08-01T10:47:26;2.00;;;1.90;;
15567;SDS011;7885;42.596;23.044;2023-08-01T10:49:53;2.42;;;2.22;;
15567;SDS011;7885;42.596;23.044;2023-08-01T10:52:21;2.00;;;1.90;;
15567;SDS011;7885;42.596;23.044;2023-08-01T10:54:55;1.80;;;1.70;;
15567;SDS011;7885;42.596;23.044;2023-08-01T10:57:24;2.28;;;2.08;;
15567;SDS011;7885;42.596;23.044;2023-08-01T10:59:51;3.00;;;2.00;;
15567;SDS011;7885;42.596;23.044;2023-08-01T11:02:22;3.05;;;2.00;;
15567;SDS011;7885;42.596;23.044;2023-08-01T11:04:58;3.00;;;2.10;;
15567;SDS011;7885;42.596;23.044;2023-08-01T11:07:25;2.38;;;2.17;;
15567;SDS011;7885;42.596;23.044;2023-08-01T11:10:05;2.30;;;2.10;;
15567;SDS011;7885;42.596;23.044;2023-08-01T11:12:34;2.10;;;2.00;;
15567;SDS011;7885;42.596;23.044;2023-08-01T11:15:03;2.75;;;2.40;;
15567;SDS011;7885;42.596;23.044;2023-08-01T11:17:31;3.78;;;2.20;;
15567;SDS011;7885;42.596;23.044;2023-08-01T11:20:03;2.30;;;2.10;;
15567;SDS011;7885;42.596;23.044;2023-08-01T11:22:32;3.00;;;2.28;;
15567;SDS011;7885;42.596;23.044;2023-08-01T11:24:59;2.30;;;2.10;;
15567;SDS011;7885;42.596;23.044;2023-08-01T11:27:26;2.00;;;1.90;;
15567;SDS011;7885;42.596;23.044;2023-08-01T11:29:53;2.20;;;2.00;;
15567;SDS011;7885;42.596;23.044;2023-08-01T11:32:20;2.13;;;2.03;;
15567;SDS011;7885;42.596;23.044;2023-08-01T11:34:48;2.90;;;2.05;;
15567;SDS011;7885;42.596;23.044;2023-08-01T11:37:17;5.03;;;2.63;;
15567;SDS011;7885;42.596;23.044;2023-08-01T11:39:45;2.45;;;2.25;;
15567;SDS011;7885;42.596;23.044;2023-08-01T11:42:14;3.13;;;2.08;;
15567;SDS011;7885;42.596;23.044;2023-08-01T11:44:42;2.20;;;2.00;;
15567;SDS011;7885;42.596;23.044;2023-08-01T11:47:10;4.15;;;2.20;;
15567;SDS011;7885;42.596;23.044;2023-08-01T11:49:38;2.30;;;2.10;;
15567;SDS011;7885;42.596;23.044;2023-08-01T11:52:05;2.65;;;2.17;;
15567;SDS011;7885;42.596;23.044;2023-08-01T11:54:44;2.25;;;2.05;;
15567;SDS011;7885;42.596;23.044;2023-08-01T11:57:11;2.25;;;2.13;;
15567;SDS011;7885;42.596;23.044;2023-08-01T11:59:45;2.17;;;2.08;;
15567;SDS011;7885;42.596;23.044;2023-08-01T12:02:20;1.83;;;1.73;;
15567;SDS011;7885;42.596;23.044;2023-08-01T12:04:48;3.28;;;1.92;;
15567;SDS011;7885;42.596;23.044;2023-08-01T12:07:15;2.45;;;2.25;;
15567;SDS011;7885;42.596;23.044;2023-08-01T12:09:42;2.22;;;2.08;;
15567;SDS011;7885;42.596;23.044;2023-08-01T12:12:10;2.38;;;2.17;;
15567;SDS011;7885;42.596;23.044;2023-08-01T12:14:40;2.55;;;2.00;;
15567;SDS011;7885;42.596;23.044;2023-08-01T12:17:07;3.38;;;2.55;;
15567;SDS011;7885;42.596;23.044;2023-08-01T12:19:33;2.30;;;2.10;;
15567;SDS011;7885;42.596;23.044;2023-08-01T12:22:00;2.10;;;1.90;;
15567;SDS011;7885;42.596;23.044;2023-08-01T12:24:27;2.58;;;2.38;;
15567;SDS011;7885;42.596;23.044;2023-08-01T12:26:54;2.25;;;2.10;;
15567;SDS011;7885;42.596;23.044;2023-08-01T12:29:22;2.33;;;2.13;;
15567;SDS011;7885;42.596;23.044;2023-08-01T12:31:48;2.42;;;2.22;;
15567;SDS011;7885;42.596;23.044;2023-08-01T12:34:15;2.10;;;2.00;;
15567;SDS011;7885;42.596;23.044;2023-08-01T12:36:42;3.97;;;2.22;;
15567;SDS011;7885;42.596;23.044;2023-08-01T12:39:09;2.63;;;2.08;;
15567;SDS011;7885;42.596;23.044;2023-08-01T12:41:36;2.38;;;2.28;;
15567;SDS011;7885;42.596;23.044;2023-08-01T12:44:03;2.20;;;2.10;;
15567;SDS011;7885;42.596;23.044;2023-08-01T12:46:31;2.42;;;2.22;;
15567;SDS011;7885;42.596;23.044;2023-08-01T12:48:58;2.60;;;2.40;;
15567;SDS011;7885;42.596;23.044;2023-08-01T12:51:25;2.20;;;2.08;;
15567;SDS011;7885;42.596;23.044;2023-08-01T12:53:51;2.50;;;2.30;;
15567;SDS011;7885;42.596;23.044;2023-08-01T12:56:18;2.60;;;2.40;;
15567;SDS011;7885;42.596;23.044;2023-08-01T12:58:45;2.85;;;2.22;;
15567;SDS011;7885;42.596;23.044;2023-08-01T13:01:12;2.40;;;2.20;;
15567;SDS011;7885;42.596;23.044;2023-08-01T13:03:40;2.15;;;2.05;;
15567;SDS011;7885;42.596;23.044;2023-08-01T13:06:09;3.15;;;2.42;;
15567;SDS011;7885;42.596;23.044;2023-08-01T13:08:36;2.22;;;2.03;;
15567;SDS011;7885;42.596;23.044;2023-08-01T13:11:09;2.85;;;2.40;;
15567;SDS011;7885;42.596;23.044;2023-08-01T13:13:37;2.63;;;2.42;;
15567;SDS011;7885;42.596;23.044;2023-08-01T13:16:04;2.28;;;1.90;;
15567;SDS011;7885;42.596;23.044;2023-08-01T13:18:31;3.03;;;2.38;;
15567;SDS011;7885;42.596;23.044;2023-08-01T13:20:59;2.60;;;2.40;;
15567;SDS011;7885;42.596;23.044;2023-08-01T13:23:26;2.38;;;2.20;;
15567;SDS011;7885;42.596;23.044;2023-08-01T13:25:53;2.95;;;2.38;;
15567;SDS011;7885;42.596;23.044;2023-08-01T13:28:20;2.40;;;2.20;;
15567;SDS011;7885;42.596;23.044;2023-08-01T13:30:47;3.08;;;2.58;;
15567;SDS011;7885;42.596;23.044;2023-08-01T13:33:13;2.75;;;2.55;;
15567;SDS011;7885;42.596;23.044;2023-08-01T13:35:40;2.28;;;2.17;;
15567;SDS011;7885;42.596;23.044;2023-08-01T13:38:08;2.50;;;2.30;;
15567;SDS011;7885;42.596;23.044;2023-08-01T13:40:35;2.28;;;2.17;;
15567;SDS011;7885;42.596;23.044;2023-08-01T13:43:01;2.58;;;2.38;;
15567;SDS011;7885;42.596;23.044;2023-08-01T13:45:29;2.47;;;2.28;;
15567;SDS011;7885;42.596;23.044;2023-08-01T13:47:56;2.55;;;2.35;;
15567;SDS011;7885;42.596;23.044;2023-08-01T13:50:24;2.35;;;2.10;;
15567;SDS011;7885;42.596;23.044;2023-08-01T13:52:51;3.85;;;2.45;;
15567;SDS011;7885;42.596;23.044;2023-08-01T13:55:19;2.65;;;2.45;;
15567;SDS011;7885;42.596;23.044;2023-08-01T13:57:46;2.90;;;2.50;;
15567;SDS011;7885;42.596;23.044;2023-08-01T14:00:13;3.78;;;2.33;;
15567;SDS011;7885;42.596;23.044;2023-08-01T14:02:40;2.40;;;2.20;;
15567;SDS011;7885;42.596;23.044;2023-08-01T14:05:07;2.83;;;2.30;;
15567;SDS011;7885;42.596;23.044;2023-08-01T14:07:34;2.50;;;2.30;;
15567;SDS011;7885;42.596;23.044;2023-08-01T14:10:02;2.83;;;2.63;;
15567;SDS011;7885;42.596;23.044;2023-08-01T14:12:31;2.58;;;2.38;;
15567;SDS011;7885;42.596;23.044;2023-08-01T14:14:57;2.58;;;2.38;;
15567;SDS011;7885;42.596;23.044;2023-08-01T14:17:24;2.55;;;2.35;;
15567;SDS011;7885;42.596;23.044;2023-08-01T14:19:51;2.72;;;2.53;;
15567;SDS011;7885;42.596;23.044;2023-08-01T14:22:18;2.45;;;2.25;;
15567;SDS011;7885;42.596;23.044;2023-08-01T14:24:44;2.53;;;2.33;;
15567;SDS011;7885;42.596;23.044;2023-08-01T14:27:11;4.10;;;2.58;;
15567;SDS011;7885;42.596;23.044;2023-08-01T14:29:39;2.75;;;2.55;;
15567;SDS011;7885;42.596;23.044;2023-08-01T14:32:06;2.72;;;2.53;;
15567;SDS011;7885;42.596;23.044;2023-08-01T14:34:33;2.50;;;2.30;;
15567;SDS011;7885;42.596;23.044;2023-08-01T14:37:00;2.67;;;2.47;;
15567;SDS011;7885;42.596;23.044;2023-08-01T14:39:27;2.80;;;2.60;;
15567;SDS011;7885;42.596;23.044;2023-08-01T14:41:55;2.90;;;2.70;;
15567;SDS011;7885;42.596;23.044;2023-08-01T14:44:21;2.67;;;2.47;;
15567;SDS011;7885;42.596;23.044;2023-08-01T14:46:49;2.72;;;2.53;;